sensor_id;sensor_type;location;lat;lon;timestamp;temperature;humidity
17053;DHT22;8643;48.824;11.422;2024-01-16T00:00:00;-0.90;99.90
17053;DHT22;8643;48.824;11.422;2024-01-16T00:02:30;-1.00;99.90
17053;DHT22;8643;48.824;11.422;2024-01-16T00:04:58;-0.90;99.90
17053;DHT22;8643;48.824;11.422;2024-01-16T00:07:28;-0.90;99.90
17053;DHT22;8643;48.824;11.422;2024-01-16T00:09:59;-0.90;99.90
17053;DHT22;8643;48.824;11.422;2024-01-16T00:12:27;-0.80;99.90
17053;DHT22;8643;48.824;11.422;2024-01-16T00:14:56;-0.80;99.90
17053;DHT22;8643;48.824;11.422;2024-01-16T00:17:24;-0.90;99.90
17053;DHT22;8643;48.824;11.422;2024-01-16T00:19:53;-0.90;99.90
17053;DHT22;8643;48.824;11.422;2024-01-16T00:22:21;-0.90;99.90
17053;DHT22;8643;48.824;11.422;2024-01-16T00:24:51;-1.00;99.90
17053;DHT22;8643;48.824;11.422;2024-01-16T00:27:19;-1.00;99.90
17053;DHT22;8643;48.824;11.422;2024-01-16T00:29:48;-1.00;99.90
17053;DHT22;8643;48.824;11.422;2024-01-16T00:32:17;-1.00;99.90
17053;DHT22;8643;48.824;11.422;2024-01-16T00:34:45;-1.10;99.90
17053;DHT22;8643;48.824;11.422;2024-01-16T00:39:44;-1.10;99.90
17053;DHT22;8643;48.824;11.422;2024-01-16T00:42:13;-1.10;99.90
17053;DHT22;8643;48.824;11.422;2024-01-16T00:44:42;-1.20;99.90
17053;DHT22;8643;48.824;11.422;2024-01-16T00:47:10;-1.10;99.90
17053;DHT22;8643;48.824;11.422;2024-01-16T00:49:39;-1.20;99.90
17053;DHT22;8643;48.824;11.422;2024-01-16T00:52:07;-1.30;99.90
17053;DHT22;8643;48.824;11.422;2024-01-16T00:54:35;-1.40;99.90
17053;DHT22;8643;48.824;11.422;2024-01-16T00:57:04;-1.40;99.90
17053;DHT22;8643;48.824;11.422;2024-01-16T00:59:34;-1.50;99.90
17053;DHT22;8643;48.824;11.422;2024-01-16T01:02:02;-1.60;99.90
17053;DHT22;8643;48.824;11.422;2024-01-16T01:04:33;-1.50;99.90
17053;DHT22;8643;48.824;11.422;2024-01-16T01:07:02;-1.70;99.90
17053;DHT22;8643;48.824;11.422;2024-01-16T01:09:32;-1.60;99.90
17053;DHT22;8643;48.824;11.422;2024-01-16T01:12:01;-1.70;99.90
17053;DHT22;8643;48.824;11.422;2024-01-16T01:14:29;-1.80;99.90
17053;DHT22;8643;48.824;11.422;2024-01-16T01:16:59;-1.90;99.90
17053;DHT22;8643;48.824;11.422;2024-01-16T01:19:28;-1.90;99.90
17053;DHT22;8643;48.824;11.422;2024-01-16T01:21:56;-2.00;99.90
17053;DHT22;8643;48.824;11.422;2024-01-16T01:24:26;-2.10;99.90
17053;DHT22;8643;48.824;11.422;2024-01-16T01:26:54;-2.10;99.90
17053;DHT22;8643;48.824;11.422;2024-01-16T01:29:22;-2.20;99.90
17053;DHT22;8643;48.824;11.422;2024-01-16T01:31:51;-2.30;99.90
17053;DHT22;8643;48.824;11.422;2024-01-16T01:34:21;-2.20;99.90
17053;DHT22;8643;48.824;11.422;2024-01-16T01:36:49;-2.40;99.90
17053;DHT22;8643;48.824;11.422;2024-01-16T01:39:18;-2.50;99.90
17053;DHT22;8643;48.824;11.422;2024-01-16T01:41:46;-2.60;99.90
17053;DHT22;8643;48.824;11.422;2024-01-16T01:44:15;-2.60;99.90
17053;DHT22;8643;48.824;11.422;2024-01-16T01:46:44;-2.60;99.90
17053;DHT22;8643;48.824;11.422;2024-01-16T01:49:14;-2.60;99.90
17053;DHT22;8643;48.824;11.422;2024-01-16T01:51:45;-2.60;99.90
17053;DHT22;8643;48.824;11.422;2024-01-16T01:54:15;-2.50;99.90
17053;DHT22;8643;48.824;11.422;2024-01-16T01:56:47;-2.50;99.90
17053;DHT22;8643;48.824;11.422;2024-01-16T01:59:17;-2.50;99.90
17053;DHT22;8643;48.824;11.422;2024-01-16T02:01:48;-2.50;99.90
17053;DHT22;8643;48.824;11.422;2024-01-16T02:04:20;-2.50;99.90
17053;DHT22;8643;48.824;11.422;2024-01-16T02:06:51;-2.40;99.90
17053;DHT22;8643;48.824;11.422;2024-01-16T02:09:20;-2.20;99.90
17053;DHT22;8643;48.824;11.422;2024-01-16T02:11:48;-2.20;99.90
17053;DHT22;8643;48.824;11.422;2024-01-16T02:14:17;-2.10;99.90
17053;DHT22;8643;48.824;11.422;2024-01-16T02:16:45;-2.00;99.90
17053;DHT22;8643;48.824;11.422;2024-01-16T02:19:14;-2.00;99.90
17053;DHT22;8643;48.824;11.422;2024-01-16T02:21:46;-1.80;99.90
17053;DHT22;8643;48.824;11.422;2024-01-16T02:24:19;-1.70;99.90
17053;DHT22;8643;48.824;11.422;2024-01-16T02:26:48;-1.60;99.90
17053;DHT22;8643;48.824;11.422;2024-01-16T02:31:45;-1.60;99.90
17053;DHT22;8643;48.824;11.422;2024-01-16T02:36:43;-1.60;99.90
17053;DHT22;8643;48.824;11.422;2024-01-16T02:39:11;-1.60;99.90
17053;DHT22;8643;48.824;11.422;2024-01-16T02:41:41;-1.50;99.90
17053;DHT22;8643;48.824;11.422;2024-01-16T02:44:09;-1.60;99.90
17053;DHT22;8643;48.824;11.422;2024-01-16T02:46:38;-1.60;99.90
17053;DHT22;8643;48.824;11.422;2024-01-16T02:49:07;-1.60;99.90
17053;DHT22;8643;48.824;11.422;2024-01-16T02:51:35;-1.60;99.90
17053;DHT22;8643;48.824;11.422;2024-01-16T02:54:06;-1.60;99.90
17053;DHT22;8643;48.824;11.422;2024-01-16T02:56:36;-1.70;99.90
17053;DHT22;8643;48.824;11.422;2024-01-16T02:59:05;-1.70;99.90
17053;DHT22;8643;48.824;11.422;2024-01-16T03:01:34;-1.70;99.90
17053;DHT22;8643;48.824;11.422;2024-01-16T03:04:03;-1.60;99.90
17053;DHT22;8643;48.824;11.422;2024-01-16T03:06:32;-1.70;99.90
17053;DHT22;8643;48.824;11.422;2024-01-16T03:09:01;-1.70;99.90
17053;DHT22;8643;48.824;11.422;2024-01-16T03:11:29;-1.70;99.90
17053;DHT22;8643;48.824;11.422;2024-01-16T03:13:59;-1.70;99.90
17053;DHT22;8643;48.824;11.422;2024-01-16T03:16:30;-1.70;99.90
17053;DHT22;8643;48.824;11.422;2024-01-16T03:18:59;-1.70;99.90
17053;DHT22;8643;48.824;11.422;2024-01-16T03:21:28;-1.70;99.90
17053;DHT22;8643;48.824;11.422;2024-01-16T03:23:56;-1.70;99.90
17053;DHT22;8643;48.824;11.422;2024-01-16T03:26:24;-1.70;99.90
17053;DHT22;8643;48.824;11.422;2024-01-16T03:28:53;-1.70;99.90
17053;DHT22;8643;48.824;11.422;2024-01-16T03:31:21;-1.70;99.90
17053;DHT22;8643;48.824;11.422;2024-01-16T03:33:51;-1.80;99.90
17053;DHT22;8643;48.824;11.422;2024-01-16T03:36:20;-1.80;99.90
17053;DHT22;8643;48.824;11.422;2024-01-16T03:38:48;-1.90;99.90
17053;DHT22;8643;48.824;11.422;2024-01-16T03:41:17;-2.00;99.90
17053;DHT22;8643;48.824;11.422;2024-01-16T03:43:45;-2.00;99.90
17053;DHT22;8643;48.824;11.422;2024-01-16T03:46:14;-2.00;99.90
17053;DHT22;8643;48.824;11.422;2024-01-16T03:48:42;-2.20;99.90
17053;DHT22;8643;48.824;11.422;2024-01-16T03:51:12;-2.20;99.90
17053;DHT22;8643;48.824;11.422;2024-01-16T03:53:42;-2.20;99.90
17053;DHT22;8643;48.824;11.422;2024-01-16T03:56:11;-2.30;99.90
17053;DHT22;8643;48.824;11.422;2024-01-16T03:58:40;-2.50;99.90
17053;DHT22;8643;48.824;11.422;2024-01-16T04:01:09;-2.60;99.90
17053;DHT22;8643;48.824;11.422;2024-01-16T04:03:39;-2.70;99.90
17053;DHT22;8643;48.824;11.422;2024-01-16T04:06:16;-2.80;99.90
17053;DHT22;8643;48.824;11.422;2024-01-16T04:08:45;-3.00;99.90
17053;DHT22;8643;48.824;11.422;2024-01-16T04:11:14;-3.10;99.90
17053;DHT22;8643;48.824;11.422;2024-01-16T04:13:43;-3.10;99.90
17053;DHT22;8643;48.824;11.422;2024-01-16T04:16:12;-3.10;99.90
17053;DHT22;8643;48.824;11.422;2024-01-16T04:18:42;-3.10;99.90
17053;DHT22;8643;48.824;11.422;2024-01-16T04:21:11;-3.10;99.90
17053;DHT22;8643;48.824;11.422;2024-01-16T04:23:45;-3.20;99.90
17053;DHT22;8643;48.824;11.422;2024-01-16T04:26:14;-3.20;99.90
17053;DHT22;8643;48.824;11.422;2024-01-16T04:28:43;-3.40;99.90
17053;DHT22;8643;48.824;11.422;2024-01-16T04:31:11;-3.20;99.90
17053;DHT22;8643;48.824;11.422;2024-01-16T04:33:40;-3.50;99.90
17053;DHT22;8643;48.824;11.422;2024-01-16T04:36:09;-3.70;99.90
17053;DHT22;8643;48.824;11.422;2024-01-16T04:38:37;-3.80;99.90
17053;DHT22;8643;48.824;11.422;2024-01-16T04:41:07;-3.70;99.90
17053;DHT22;8643;48.824;11.422;2024-01-16T04:43:36;-4.80;99.90
17053;DHT22;8643;48.824;11.422;2024-01-16T04:46:04;-3.70;99.90
17053;DHT22;8643;48.824;11.422;2024-01-16T04:48:33;-3.70;99.90
17053;DHT22;8643;48.824;11.422;2024-01-16T04:51:01;-3.60;99.90
17053;DHT22;8643;48.824;11.422;2024-01-16T04:53:30;-3.50;99.90
17053;DHT22;8643;48.824;11.422;2024-01-16T04:55:59;-3.60;99.90
17053;DHT22;8643;48.824;11.422;2024-01-16T04:58:29;-3.30;99.90
17053;DHT22;8643;48.824;11.422;2024-01-16T05:00:57;-3.30;99.90
17053;DHT22;8643;48.824;11.422;2024-01-16T05:03:26;-3.30;99.90
17053;DHT22;8643;48.824;11.422;2024-01-16T05:05:54;-3.30;99.90
17053;DHT22;8643;48.824;11.422;2024-01-16T05:08:24;-3.30;99.90
17053;DHT22;8643;48.824;11.422;2024-01-16T05:10:52;-3.30;99.90
17053;DHT22;8643;48.824;11.422;2024-01-16T05:13:21;-3.20;99.90
17053;DHT22;8643;48.824;11.422;2024-01-16T05:15:51;-3.20;99.90
17053;DHT22;8643;48.824;11.422;2024-01-16T05:18:20;-3.20;99.90
17053;DHT22;8643;48.824;11.422;2024-01-16T05:20:48;-3.20;99.90
17053;DHT22;8643;48.824;11.422;2024-01-16T05:23:17;-3.20;99.90
17053;DHT22;8643;48.824;11.422;2024-01-16T05:25:46;-3.10;99.90
17053;DHT22;8643;48.824;11.422;2024-01-16T05:28:14;-3.10;99.90
17053;DHT22;8643;48.824;11.422;2024-01-16T05:30:44;-3.10;99.90
17053;DHT22;8643;48.824;11.422;2024-01-16T05:33:14;-3.00;99.90
17053;DHT22;8643;48.824;11.422;2024-01-16T05:35:43;-3.20;99.90
17053;DHT22;8643;48.824;11.422;2024-01-16T05:38:11;-3.30;99.90
17053;DHT22;8643;48.824;11.422;2024-01-16T05:40:40;-3.30;99.90
17053;DHT22;8643;48.824;11.422;2024-01-16T05:43:09;-3.30;99.90
17053;DHT22;8643;48.824;11.422;2024-01-16T05:45:37;-3.30;99.90
17053;DHT22;8643;48.824;11.422;2024-01-16T05:48:06;-3.40;99.90
17053;DHT22;8643;48.824;11.422;2024-01-16T05:50:37;-3.50;99.90
17053;DHT22;8643;48.824;11.422;2024-01-16T05:53:06;-3.50;99.90
17053;DHT22;8643;48.824;11.422;2024-01-16T05:55:34;-3.60;99.90
17053;DHT22;8643;48.824;11.422;2024-01-16T05:58:03;-3.60;99.90
17053;DHT22;8643;48.824;11.422;2024-01-16T06:00:32;-3.70;99.90
17053;DHT22;8643;48.824;11.422;2024-01-16T06:03:01;-3.80;99.90
17053;DHT22;8643;48.824;11.422;2024-01-16T06:05:30;-3.90;99.90
17053;DHT22;8643;48.824;11.422;2024-01-16T06:08:00;-3.90;99.90
17053;DHT22;8643;48.824;11.422;2024-01-16T06:10:29;-3.90;99.90
17053;DHT22;8643;48.824;11.422;2024-01-16T06:12:58;-3.90;99.90
17053;DHT22;8643;48.824;11.422;2024-01-16T06:15:27;-3.90;99.90
17053;DHT22;8643;48.824;11.422;2024-01-16T06:17:55;-4.00;99.90
17053;DHT22;8643;48.824;11.422;2024-01-16T06:20:23;-4.00;99.90
17053;DHT22;8643;48.824;11.422;2024-01-16T06:22:52;-4.00;99.90
17053;DHT22;8643;48.824;11.422;2024-01-16T06:25:22;-4.10;99.90
17053;DHT22;8643;48.824;11.422;2024-01-16T06:27:51;-4.10;99.90
17053;DHT22;8643;48.824;11.422;2024-01-16T06:30:19;-4.20;99.90
17053;DHT22;8643;48.824;11.422;2024-01-16T06:32:48;-4.20;99.90
17053;DHT22;8643;48.824;11.422;2024-01-16T06:35:17;-4.20;99.90
17053;DHT22;8643;48.824;11.422;2024-01-16T06:37:45;-4.20;99.90
17053;DHT22;8643;48.824;11.422;2024-01-16T06:40:14;-4.20;99.90
17053;DHT22;8643;48.824;11.422;2024-01-16T06:42:44;-4.30;99.90
17053;DHT22;8643;48.824;11.422;2024-01-16T06:45:12;-4.30;99.90
17053;DHT22;8643;48.824;11.422;2024-01-16T06:47:42;-4.30;99.90
17053;DHT22;8643;48.824;11.422;2024-01-16T06:50:12;-4.40;99.90
17053;DHT22;8643;48.824;11.422;2024-01-16T06:55:09;-4.50;99.90
17053;DHT22;8643;48.824;11.422;2024-01-16T06:57:38;-4.50;99.90
17053;DHT22;8643;48.824;11.422;2024-01-16T07:00:09;-4.60;99.90
17053;DHT22;8643;48.824;11.422;2024-01-16T07:02:39;-4.70;99.90
17053;DHT22;8643;48.824;11.422;2024-01-16T07:05:11;-4.70;99.90
17053;DHT22;8643;48.824;11.422;2024-01-16T07:07:39;-4.80;99.90
17053;DHT22;8643;48.824;11.422;2024-01-16T07:10:08;-4.90;99.90
17053;DHT22;8643;48.824;11.422;2024-01-16T07:12:40;-5.10;99.90
17053;DHT22;8643;48.824;11.422;2024-01-16T07:15:10;-5.10;99.90
17053;DHT22;8643;48.824;11.422;2024-01-16T07:17:39;-5.20;99.90
17053;DHT22;8643;48.824;11.422;2024-01-16T07:20:08;-5.20;99.90
17053;DHT22;8643;48.824;11.422;2024-01-16T07:22:38;-5.20;99.90
17053;DHT22;8643;48.824;11.422;2024-01-16T07:25:07;-5.20;99.90
17053;DHT22;8643;48.824;11.422;2024-01-16T07:27:36;-5.10;99.90
17053;DHT22;8643;48.824;11.422;2024-01-16T07:30:06;-5.10;99.90
17053;DHT22;8643;48.824;11.422;2024-01-16T07:32:37;-5.00;99.90
17053;DHT22;8643;48.824;11.422;2024-01-16T07:35:06;-5.00;99.90
17053;DHT22;8643;48.824;11.422;2024-01-16T07:37:35;-5.00;99.90
17053;DHT22;8643;48.824;11.422;2024-01-16T07:40:04;-4.80;99.90
17053;DHT22;8643;48.824;11.422;2024-01-16T07:42:33;-4.80;99.90
17053;DHT22;8643;48.824;11.422;2024-01-16T07:45:02;-4.60;99.90
17053;DHT22;8643;48.824;11.422;2024-01-16T07:47:32;-4.10;99.90
17053;DHT22;8643;48.824;11.422;2024-01-16T07:50:03;-4.50;99.90
17053;DHT22;8643;48.824;11.422;2024-01-16T07:52:34;-4.50;99.90
17053;DHT22;8643;48.824;11.422;2024-01-16T07:55:03;-4.30;99.90
17053;DHT22;8643;48.824;11.422;2024-01-16T07:57:32;-4.30;99.90
17053;DHT22;8643;48.824;11.422;2024-01-16T08:00:00;-4.10;99.90
17053;DHT22;8643;48.824;11.422;2024-01-16T08:02:32;-4.00;99.90
17053;DHT22;8643;48.824;11.422;2024-01-16T08:05:03;-3.90;99.90
17053;DHT22;8643;48.824;11.422;2024-01-16T08:07:32;-3.90;99.90
17053;DHT22;8643;48.824;11.422;2024-01-16T08:10:02;-3.80;99.90
17053;DHT22;8643;48.824;11.422;2024-01-16T08:12:30;-3.80;99.90
17053;DHT22;8643;48.824;11.422;2024-01-16T08:14:59;-3.80;99.90
17053;DHT22;8643;48.824;11.422;2024-01-16T08:19:56;-3.50;99.90
17053;DHT22;8643;48.824;11.422;2024-01-16T08:22:26;-3.30;99.90
17053;DHT22;8643;48.824;11.422;2024-01-16T08:24:55;-3.30;99.90
17053;DHT22;8643;48.824;11.422;2024-01-16T08:27:23;-3.30;99.90
17053;DHT22;8643;48.824;11.422;2024-01-16T08:29:52;-3.20;99.90
17053;DHT22;8643;48.824;11.422;2024-01-16T08:32:20;-3.10;99.90
17053;DHT22;8643;48.824;11.422;2024-01-16T08:34:49;-2.90;99.90
17053;DHT22;8643;48.824;11.422;2024-01-16T08:37:18;-2.80;99.90
17053;DHT22;8643;48.824;11.422;2024-01-16T08:39:48;-2.70;99.90
17053;DHT22;8643;48.824;11.422;2024-01-16T08:42:17;-2.60;99.90
17053;DHT22;8643;48.824;11.422;2024-01-16T08:44:45;-2.50;99.90
17053;DHT22;8643;48.824;11.422;2024-01-16T08:47:13;-2.40;99.90
17053;DHT22;8643;48.824;11.422;2024-01-16T08:49:42;-2.30;99.90
17053;DHT22;8643;48.824;11.422;2024-01-16T08:52:11;-2.20;99.90
17053;DHT22;8643;48.824;11.422;2024-01-16T08:54:40;-2.00;99.90
17053;DHT22;8643;48.824;11.422;2024-01-16T08:57:10;-2.00;99.90
17053;DHT22;8643;48.824;11.422;2024-01-16T08:59:43;-1.90;99.90
17053;DHT22;8643;48.824;11.422;2024-01-16T09:02:12;-1.80;99.90
17053;DHT22;8643;48.824;11.422;2024-01-16T09:04:40;-1.90;99.90
17053;DHT22;8643;48.824;11.422;2024-01-16T09:07:09;-1.80;99.90
17053;DHT22;8643;48.824;11.422;2024-01-16T09:09:37;-1.80;99.90
17053;DHT22;8643;48.824;11.422;2024-01-16T09:12:06;-1.80;99.90
17053;DHT22;8643;48.824;11.422;2024-01-16T09:14:36;-1.70;99.90
17053;DHT22;8643;48.824;11.422;2024-01-16T09:17:04;-1.60;99.90
17053;DHT22;8643;48.824;11.422;2024-01-16T09:19:33;-1.50;99.90
17053;DHT22;8643;48.824;11.422;2024-01-16T09:22:02;-1.40;99.90
17053;DHT22;8643;48.824;11.422;2024-01-16T09:24:31;-1.40;99.90
17053;DHT22;8643;48.824;11.422;2024-01-16T09:26:59;-1.40;99.90
17053;DHT22;8643;48.824;11.422;2024-01-16T09:29:28;-1.20;99.90
17053;DHT22;8643;48.824;11.422;2024-01-16T09:31:58;-1.20;99.90
17053;DHT22;8643;48.824;11.422;2024-01-16T09:34:27;-1.10;99.90
17053;DHT22;8643;48.824;11.422;2024-01-16T09:36:55;-1.10;99.90
17053;DHT22;8643;48.824;11.422;2024-01-16T09:39:26;-1.10;99.90
17053;DHT22;8643;48.824;11.422;2024-01-16T09:41:55;-1.00;99.90
17053;DHT22;8643;48.824;11.422;2024-01-16T09:44:27;-0.90;99.90
17053;DHT22;8643;48.824;11.422;2024-01-16T09:46:59;-0.80;99.90
17053;DHT22;8643;48.824;11.422;2024-01-16T09:49:30;-0.70;99.90
17053;DHT22;8643;48.824;11.422;2024-01-16T09:51:58;-0.80;99.90
17053;DHT22;8643;48.824;11.422;2024-01-16T09:54:29;-0.90;99.90
17053;DHT22;8643;48.824;11.422;2024-01-16T09:56:58;-0.80;99.90
17053;DHT22;8643;48.824;11.422;2024-01-16T09:59:31;-0.70;99.90
17053;DHT22;8643;48.824;11.422;2024-01-16T10:02:04;-0.60;99.90
17053;DHT22;8643;48.824;11.422;2024-01-16T10:04:34;-0.50;99.90
17053;DHT22;8643;48.824;11.422;2024-01-16T10:07:03;-0.50;99.90
17053;DHT22;8643;48.824;11.422;2024-01-16T10:09:33;-0.50;99.90
17053;DHT22;8643;48.824;11.422;2024-01-16T10:12:02;-0.50;99.90
17053;DHT22;8643;48.824;11.422;2024-01-16T10:14:30;-0.40;99.90
17053;DHT22;8643;48.824;11.422;2024-01-16T10:17:01;-0.60;99.90
17053;DHT22;8643;48.824;11.422;2024-01-16T10:19:34;-0.70;99.90
17053;DHT22;8643;48.824;11.422;2024-01-16T10:22:19;-0.80;99.90
17053;DHT22;8643;48.824;11.422;2024-01-16T10:25:04;-0.90;99.90
17053;DHT22;8643;48.824;11.422;2024-01-16T10:27:33;-0.90;99.90
17053;DHT22;8643;48.824;11.422;2024-01-16T10:30:03;-0.90;99.90
17053;DHT22;8643;48.824;11.422;2024-01-16T10:32:35;-1.00;99.90
17053;DHT22;8643;48.824;11.422;2024-01-16T10:35:08;-0.80;99.90
17053;DHT22;8643;48.824;11.422;2024-01-16T10:37:46;-0.70;99.90
17053;DHT22;8643;48.824;11.422;2024-01-16T10:40:16;-0.60;99.90
17053;DHT22;8643;48.824;11.422;2024-01-16T10:42:58;-0.60;99.90
17053;DHT22;8643;48.824;11.422;2024-01-16T10:45:28;-0.50;99.90
17053;DHT22;8643;48.824;11.422;2024-01-16T10:48:03;-0.60;99.90
17053;DHT22;8643;48.824;11.422;2024-01-16T10:50:36;-0.60;99.90
17053;DHT22;8643;48.824;11.422;2024-01-16T10:53:08;-0.50;99.90
17053;DHT22;8643;48.824;11.422;2024-01-16T10:55:41;-1.20;99.90
17053;DHT22;8643;48.824;11.422;2024-01-16T10:58:19;-0.50;99.90
17053;DHT22;8643;48.824;11.422;2024-01-16T11:00:52;-0.60;99.90
17053;DHT22;8643;48.824;11.422;2024-01-16T11:03:42;-0.50;99.90
17053;DHT22;8643;48.824;11.422;2024-01-16T11:06:16;-0.40;99.90
17053;DHT22;8643;48.824;11.422;2024-01-16T11:08:46;-0.40;99.90
17053;DHT22;8643;48.824;11.422;2024-01-16T11:11:16;-0.30;99.90
17053;DHT22;8643;48.824;11.422;2024-01-16T11:13:46;-0.20;99.90
17053;DHT22;8643;48.824;11.422;2024-01-16T11:16:15;-0.20;99.90
17053;DHT22;8643;48.824;11.422;2024-01-16T11:18:44;-0.10;99.90
17053;DHT22;8643;48.824;11.422;2024-01-16T11:21:14;0.10;99.90
17053;DHT22;8643;48.824;11.422;2024-01-16T11:26:26;0.00;99.90
17053;DHT22;8643;48.824;11.422;2024-01-16T11:28:56;-0.10;99.90
17053;DHT22;8643;48.824;11.422;2024-01-16T11:31:33;0.00;99.90
17053;DHT22;8643;48.824;11.422;2024-01-16T11:34:03;0.10;99.90
17053;DHT22;8643;48.824;11.422;2024-01-16T11:36:52;0.10;99.90
17053;DHT22;8643;48.824;11.422;2024-01-16T11:39:23;0.10;99.90
17053;DHT22;8643;48.824;11.422;2024-01-16T11:41:54;0.10;99.90
17053;DHT22;8643;48.824;11.422;2024-01-16T11:44:40;0.20;99.90
17053;DHT22;8643;48.824;11.422;2024-01-16T11:47:16;0.10;99.90
17053;DHT22;8643;48.824;11.422;2024-01-16T11:49:46;0.10;99.90
17053;DHT22;8643;48.824;11.422;2024-01-16T11:52:40;-0.10;99.90
17053;DHT22;8643;48.824;11.422;2024-01-16T11:55:25;-0.10;99.90
17053;DHT22;8643;48.824;11.422;2024-01-16T11:58:06;0.10;99.90
17053;DHT22;8643;48.824;11.422;2024-01-16T12:00:50;0.10;99.90
17053;DHT22;8643;48.824;11.422;2024-01-16T12:03:21;0.60;99.90
17053;DHT22;8643;48.824;11.422;2024-01-16T12:06:01;0.70;99.90
17053;DHT22;8643;48.824;11.422;2024-01-16T12:08:35;0.80;99.90
17053;DHT22;8643;48.824;11.422;2024-01-16T12:13:32;0.90;99.90
17053;DHT22;8643;48.824;11.422;2024-01-16T12:16:01;0.80;99.90
17053;DHT22;8643;48.824;11.422;2024-01-16T12:18:31;0.70;99.90
17053;DHT22;8643;48.824;11.422;2024-01-16T12:21:10;0.60;99.90
17053;DHT22;8643;48.824;11.422;2024-01-16T12:23:41;0.50;99.90
17053;DHT22;8643;48.824;11.422;2024-01-16T12:26:22;0.40;99.90
17053;DHT22;8643;48.824;11.422;2024-01-16T12:28:51;0.40;99.90
17053;DHT22;8643;48.824;11.422;2024-01-16T12:31:26;0.40;99.90
17053;DHT22;8643;48.824;11.422;2024-01-16T12:34:05;0.50;99.90
17053;DHT22;8643;48.824;11.422;2024-01-16T12:36:36;0.60;99.90
17053;DHT22;8643;48.824;11.422;2024-01-16T12:39:07;0.90;99.90
17053;DHT22;8643;48.824;11.422;2024-01-16T12:41:41;1.00;99.90
17053;DHT22;8643;48.824;11.422;2024-01-16T12:44:12;0.90;99.90
17053;DHT22;8643;48.824;11.422;2024-01-16T12:46:44;0.80;99.90
17053;DHT22;8643;48.824;11.422;2024-01-16T12:49:21;0.50;99.90
17053;DHT22;8643;48.824;11.422;2024-01-16T12:51:50;0.40;99.90
17053;DHT22;8643;48.824;11.422;2024-01-16T12:54:21;0.20;99.90
17053;DHT22;8643;48.824;11.422;2024-01-16T12:56:58;0.20;99.90
17053;DHT22;8643;48.824;11.422;2024-01-16T12:59:27;0.30;99.90
17053;DHT22;8643;48.824;11.422;2024-01-16T13:01:58;0.40;99.90
17053;DHT22;8643;48.824;11.422;2024-01-16T13:04:27;0.20;99.90
17053;DHT22;8643;48.824;11.422;2024-01-16T13:07:01;0.30;99.90
17053;DHT22;8643;48.824;11.422;2024-01-16T13:09:32;0.50;99.90
17053;DHT22;8643;48.824;11.422;2024-01-16T13:12:00;0.60;99.90
17053;DHT22;8643;48.824;11.422;2024-01-16T13:14:29;0.60;99.90
17053;DHT22;8643;48.824;11.422;2024-01-16T13:16:57;0.70;99.90
17053;DHT22;8643;48.824;11.422;2024-01-16T13:19:28;0.50;99.90
17053;DHT22;8643;48.824;11.422;2024-01-16T13:22:00;0.50;99.90
17053;DHT22;8643;48.824;11.422;2024-01-16T13:24:28;0.50;99.90
17053;DHT22;8643;48.824;11.422;2024-01-16T13:26:58;0.20;99.90
17053;DHT22;8643;48.824;11.422;2024-01-16T13:29:27;0.10;99.90
17053;DHT22;8643;48.824;11.422;2024-01-16T13:31:56;0.00;99.90
17053;DHT22;8643;48.824;11.422;2024-01-16T13:34:25;0.10;99.90
17053;DHT22;8643;48.824;11.422;2024-01-16T13:36:54;0.20;99.90
17053;DHT22;8643;48.824;11.422;2024-01-16T13:39:42;0.40;99.90
17053;DHT22;8643;48.824;11.422;2024-01-16T13:42:12;0.30;99.90
17053;DHT22;8643;48.824;11.422;2024-01-16T13:44:45;0.30;99.90
17053;DHT22;8643;48.824;11.422;2024-01-16T13:47:15;0.30;99.90
17053;DHT22;8643;48.824;11.422;2024-01-16T13:49:49;0.30;99.90
17053;DHT22;8643;48.824;11.422;2024-01-16T13:52:17;0.30;99.90
17053;DHT22;8643;48.824;11.422;2024-01-16T13:54:51;0.30;99.90
17053;DHT22;8643;48.824;11.422;2024-01-16T13:57:20;0.40;99.90
17053;DHT22;8643;48.824;11.422;2024-01-16T13:59:49;0.40;99.90
17053;DHT22;8643;48.824;11.422;2024-01-16T14:02:18;0.40;99.90
17053;DHT22;8643;48.824;11.422;2024-01-16T14:04:46;0.30;99.90
17053;DHT22;8643;48.824;11.422;2024-01-16T14:07:23;0.30;99.90
17053;DHT22;8643;48.824;11.422;2024-01-16T14:09:51;0.20;99.90
17053;DHT22;8643;48.824;11.422;2024-01-16T14:12:20;0.20;99.90
17053;DHT22;8643;48.824;11.422;2024-01-16T14:14:48;0.10;99.90
17053;DHT22;8643;48.824;11.422;2024-01-16T14:17:17;0.00;99.90
17053;DHT22;8643;48.824;11.422;2024-01-16T14:19:45;0.00;99.90
17053;DHT22;8643;48.824;11.422;2024-01-16T14:24:43;-0.10;99.90
17053;DHT22;8643;48.824;11.422;2024-01-16T14:27:16;-0.50;99.90
17053;DHT22;8643;48.824;11.422;2024-01-16T14:29:44;-0.40;99.90
17053;DHT22;8643;48.824;11.422;2024-01-16T14:32:13;-0.30;99.90
17053;DHT22;8643;48.824;11.422;2024-01-16T14:34:41;-0.30;99.90
17053;DHT22;8643;48.824;11.422;2024-01-16T14:37:09;-0.40;99.90
17053;DHT22;8643;48.824;11.422;2024-01-16T14:39:39;-0.40;99.90
17053;DHT22;8643;48.824;11.422;2024-01-16T14:42:08;-0.50;99.90
17053;DHT22;8643;48.824;11.422;2024-01-16T14:44:39;-0.40;99.90
17053;DHT22;8643;48.824;11.422;2024-01-16T14:47:08;-0.70;99.90
17053;DHT22;8643;48.824;11.422;2024-01-16T14:49:36;-0.80;99.90
17053;DHT22;8643;48.824;11.422;2024-01-16T14:52:05;-0.70;99.90
17053;DHT22;8643;48.824;11.422;2024-01-16T14:54:34;-0.70;99.90
17053;DHT22;8643;48.824;11.422;2024-01-16T14:57:03;-0.60;99.90
17053;DHT22;8643;48.824;11.422;2024-01-16T14:59:35;-0.70;99.90
17053;DHT22;8643;48.824;11.422;2024-01-16T15:02:04;-0.70;99.90
17053;DHT22;8643;48.824;11.422;2024-01-16T15:04:40;-0.70;99.90
17053;DHT22;8643;48.824;11.422;2024-01-16T15:07:13;-2.20;99.90
17053;DHT22;8643;48.824;11.422;2024-01-16T15:09:42;-0.80;99.90
17053;DHT22;8643;48.824;11.422;2024-01-16T15:12:10;-0.80;99.90
17053;DHT22;8643;48.824;11.422;2024-01-16T15:14:42;-0.80;99.90
17053;DHT22;8643;48.824;11.422;2024-01-16T15:17:10;-0.90;99.90
17053;DHT22;8643;48.824;11.422;2024-01-16T15:19:39;-1.00;99.90
17053;DHT22;8643;48.824;11.422;2024-01-16T15:22:07;-1.10;99.90
17053;DHT22;8643;48.824;11.422;2024-01-16T15:24:36;-1.10;99.90
17053;DHT22;8643;48.824;11.422;2024-01-16T15:27:04;-1.00;99.90
17053;DHT22;8643;48.824;11.422;2024-01-16T15:32:04;-1.00;99.90
17053;DHT22;8643;48.824;11.422;2024-01-16T15:37:04;-1.10;99.90
17053;DHT22;8643;48.824;11.422;2024-01-16T15:39:32;-1.20;99.90
17053;DHT22;8643;48.824;11.422;2024-01-16T15:42:01;-1.20;99.90
17053;DHT22;8643;48.824;11.422;2024-01-16T15:44:29;-1.20;99.90
17053;DHT22;8643;48.824;11.422;2024-01-16T15:46:58;-1.30;99.90
17053;DHT22;8643;48.824;11.422;2024-01-16T15:49:30;0.30;99.90
17053;DHT22;8643;48.824;11.422;2024-01-16T15:51:59;-1.50;99.90
17053;DHT22;8643;48.824;11.422;2024-01-16T15:54:28;-1.50;99.90
17053;DHT22;8643;48.824;11.422;2024-01-16T15:59:28;-1.60;99.90
17053;DHT22;8643;48.824;11.422;2024-01-16T16:01:56;-1.70;99.90
17053;DHT22;8643;48.824;11.422;2024-01-16T16:04:29;-1.80;99.90
17053;DHT22;8643;48.824;11.422;2024-01-16T16:06:58;-1.80;99.90
17053;DHT22;8643;48.824;11.422;2024-01-16T16:09:27;-1.80;99.90
17053;DHT22;8643;48.824;11.422;2024-01-16T16:14:27;-1.90;99.90
17053;DHT22;8643;48.824;11.422;2024-01-16T16:16:58;-1.90;99.90
17053;DHT22;8643;48.824;11.422;2024-01-16T16:19:30;-1.90;99.90